Flugplatz Altdorf-Wallburg

Für EDSW sind keine METAR/TAF Berichte vorhanden.
Es werden die Flugwettermeldungen vom Flugplatz Lahr in 11 km Entfernung angezeigt.

Bericht für EDTL

vom 16.01. um 09:50 UTC

variable Windrichtung mit 2 kt

Sichtweite 6000 m

gering bewölkt in 2000 ft

aufgelockert bewölkt in 7000 ft

Temperatur 0.0°C

Taupunkt 0.0°C

Luftfeuchtigkeit 100%

Luftdruck 1029 hPa

EDTL 160950Z VRB02KT 6000 FEW020 SCT070 M00/M00 Q1029

Prognose für EDTL

vom 16.01. um 08:00 UTC

Zwischen 09:00 UTC und 18:00 UTC

Wind 4 kt aus 200°

Sichtweite 6000 m

aufgelockert bewölkt in 1500 ft

TAF EDTL 160800Z 1609/1618 20004KT 6000 SCT015
Impressum